createdAt,value
2023-05-06T00:00:19.945Z,13.11
2023-05-06T00:02:47.241Z,13.07
2023-05-06T00:05:14.481Z,13.05
2023-05-06T00:07:41.682Z,13.04
2023-05-06T00:10:09.781Z,13.02
2023-05-06T00:12:37.661Z,12.99
2023-05-06T00:15:05.727Z,13.01
2023-05-06T00:17:32.940Z,12.94
2023-05-06T00:20:00.229Z,12.91
2023-05-06T00:22:27.367Z,12.89
2023-05-06T00:24:54.478Z,12.93
2023-05-06T00:27:21.638Z,12.86
2023-05-06T00:29:48.845Z,12.79
2023-05-06T00:32:16.341Z,12.70
2023-05-06T00:34:43.557Z,12.73
2023-05-06T00:37:10.714Z,12.66
2023-05-06T00:39:37.903Z,12.73
2023-05-06T00:42:05.172Z,12.68
2023-05-06T00:44:32.430Z,12.66
2023-05-06T00:47:00.579Z,12.61
2023-05-06T00:49:29.358Z,12.59
2023-05-06T00:51:57.690Z,12.49
2023-05-06T00:54:25.472Z,12.47
2023-05-06T00:56:53.450Z,12.48
2023-05-06T00:59:22.341Z,12.55
2023-05-06T01:01:49.625Z,12.41
2023-05-06T01:04:16.877Z,12.52
2023-05-06T01:07:08.642Z,12.42
2023-05-06T01:09:44.222Z,12.34
2023-05-06T01:12:24.164Z,12.22
2023-05-06T01:15:02.039Z,12.20
2023-05-06T01:17:31.392Z,12.30
2023-05-06T01:20:00.873Z,12.32
2023-05-06T01:22:29.886Z,12.32
2023-05-06T01:24:57.056Z,12.12
2023-05-06T01:27:24.926Z,12.12
2023-05-06T01:29:52.100Z,12.02
2023-05-06T01:32:19.226Z,12.14
2023-05-06T01:35:17.019Z,12.08
2023-05-06T01:38:05.854Z,12.14
2023-05-06T01:40:35.337Z,12.12
2023-05-06T01:43:05.645Z,12.06
2023-05-06T01:45:35.311Z,11.95
2023-05-06T01:48:02.698Z,12.00
2023-05-06T01:50:30.486Z,11.96
2023-05-06T01:53:02.212Z,12.02
2023-05-06T01:55:29.753Z,12.06
2023-05-06T01:57:56.949Z,12.12
2023-05-06T02:00:26.434Z,12.04
2023-05-06T02:02:53.794Z,12.00
2023-05-06T02:05:21.069Z,12.03
2023-05-06T02:07:48.249Z,12.01
2023-05-06T02:10:15.482Z,11.95
2023-05-06T02:12:42.664Z,11.95
2023-05-06T02:15:10.781Z,11.95
2023-05-06T02:17:38.421Z,11.92
2023-05-06T02:20:06.449Z,11.92
2023-05-06T02:22:33.611Z,11.96
2023-05-06T02:25:00.751Z,12.00
2023-05-06T02:27:28.022Z,12.01
2023-05-06T02:29:55.323Z,11.92
2023-05-06T02:32:22.577Z,11.84
2023-05-06T02:34:49.825Z,11.85
2023-05-06T02:37:17.041Z,11.90
2023-05-06T02:39:44.375Z,11.91
2023-05-06T02:42:15.299Z,11.84
2023-05-06T02:44:42.579Z,11.88
2023-05-06T02:47:09.745Z,11.88
2023-05-06T02:49:36.865Z,11.78
2023-05-06T02:52:04.633Z,11.75
2023-05-06T02:54:31.954Z,11.72
2023-05-06T02:56:59.215Z,11.83
2023-05-06T02:59:26.355Z,11.81
2023-05-06T03:01:53.634Z,11.73
2023-05-06T03:04:20.984Z,11.78
2023-05-06T03:06:48.171Z,11.72
2023-05-06T03:09:15.695Z,11.79
2023-05-06T03:11:42.878Z,11.87
2023-05-06T03:14:10.282Z,11.86
2023-05-06T03:16:37.494Z,11.93
2023-05-06T03:19:04.582Z,11.89
2023-05-06T03:21:31.962Z,11.83
2023-05-06T03:23:59.366Z,11.85
2023-05-06T03:26:26.592Z,12.02
2023-05-06T03:28:54.354Z,11.92
2023-05-06T03:31:21.585Z,11.96
2023-05-06T03:33:59.169Z,12.16
2023-05-06T03:36:26.302Z,14.72
2023-05-06T03:38:54.268Z,14.84
2023-05-06T03:41:23.752Z,15.09
2023-05-06T03:43:54.712Z,14.56
2023-05-06T03:46:22.711Z,15.52
2023-05-06T03:48:50.788Z,15.40
2023-05-06T03:51:18.684Z,15.51
2023-05-06T03:53:48.241Z,15.66
2023-05-06T03:56:16.198Z,15.59
2023-05-06T03:58:47.454Z,15.28
2023-05-06T04:01:19.319Z,15.53
2023-05-06T04:03:48.058Z,15.17
2023-05-06T04:06:19.896Z,15.14
2023-05-06T04:08:47.860Z,15.05
2023-05-06T04:11:18.032Z,14.86
2023-05-06T04:13:52.143Z,15.12
2023-05-06T04:16:19.571Z,15.04
2023-05-06T04:18:52.695Z,14.08
2023-05-06T04:21:19.915Z,13.13
2023-05-06T04:23:47.060Z,12.90
2023-05-06T04:26:14.226Z,12.62
2023-05-06T04:28:41.577Z,12.51
2023-05-06T04:31:14.715Z,12.51
2023-05-06T04:33:42.031Z,12.52
2023-05-06T04:36:12.957Z,12.53
2023-05-06T04:38:42.936Z,12.89
2023-05-06T04:41:13.444Z,12.52
2023-05-06T04:43:43.980Z,12.47
2023-05-06T04:46:17.216Z,12.43
2023-05-06T04:48:44.884Z,12.30
2023-05-06T04:51:12.184Z,12.33
2023-05-06T04:53:44.951Z,12.34
2023-05-06T04:56:17.802Z,12.32
2023-05-06T04:58:44.984Z,12.32
2023-05-06T05:01:12.110Z,12.43
2023-05-06T05:03:39.846Z,12.36
2023-05-06T05:06:08.062Z,12.51
2023-05-06T05:08:39.749Z,12.63
2023-05-06T05:11:08.021Z,12.67
2023-05-06T05:13:35.711Z,12.72
2023-05-06T05:16:04.316Z,12.73
2023-05-06T05:18:31.326Z,12.78
2023-05-06T05:20:58.545Z,12.88
2023-05-06T05:23:30.946Z,12.90
2023-05-06T05:25:58.233Z,13.06
2023-05-06T05:28:28.184Z,13.12
2023-05-06T05:30:58.317Z,13.06
2023-05-06T05:33:25.507Z,13.01
2023-05-06T05:35:52.822Z,13.16
2023-05-06T05:38:20.397Z,13.16
2023-05-06T05:40:48.411Z,13.27
2023-05-06T05:43:20.994Z,13.33
2023-05-06T05:45:48.274Z,13.33
2023-05-06T05:48:18.152Z,13.38
2023-05-06T05:50:45.384Z,13.35
2023-05-06T05:53:19.015Z,13.38
2023-05-06T05:55:46.743Z,13.48
2023-05-06T05:58:22.309Z,13.54
2023-05-06T06:00:49.388Z,13.70
2023-05-06T06:03:20.063Z,13.83
2023-05-06T06:05:50.604Z,13.88
2023-05-06T06:08:18.005Z,13.92
2023-05-06T06:10:49.389Z,13.84
2023-05-06T06:13:19.379Z,13.94
2023-05-06T06:15:50.476Z,13.95
2023-05-06T06:18:17.642Z,14.07
2023-05-06T06:20:45.356Z,14.16
2023-05-06T06:23:18.359Z,14.21
2023-05-06T06:25:48.341Z,14.25
2023-05-06T06:28:18.395Z,14.29
2023-05-06T06:30:51.521Z,14.43
2023-05-06T06:33:18.588Z,14.60
2023-05-06T06:35:48.772Z,14.75
2023-05-06T06:38:19.286Z,14.86
2023-05-06T06:40:48.854Z,15.11
2023-05-06T06:43:24.533Z,15.07
2023-05-06T06:45:54.347Z,15.27
2023-05-06T06:48:27.178Z,15.44
2023-05-06T06:50:57.719Z,15.64
2023-05-06T06:53:24.865Z,16.09
2023-05-06T06:55:55.204Z,16.36
2023-05-06T06:58:25.595Z,16.86
2023-05-06T07:00:56.435Z,17.63
2023-05-06T07:03:26.065Z,17.76
2023-05-06T07:05:58.710Z,18.19
2023-05-06T07:08:29.118Z,18.71
2023-05-06T07:10:59.951Z,18.87
2023-05-06T07:13:31.200Z,19.07
2023-05-06T07:16:04.128Z,19.16
2023-05-06T07:18:31.627Z,19.34
2023-05-06T07:21:02.199Z,19.51
2023-05-06T07:23:31.829Z,19.76
2023-05-06T07:26:00.050Z,19.95
2023-05-06T07:28:28.224Z,20.28
2023-05-06T07:30:59.407Z,20.33
2023-05-06T07:33:31.871Z,20.57
2023-05-06T07:36:01.899Z,20.73
2023-05-06T07:38:29.243Z,20.80
2023-05-06T07:40:59.735Z,20.67
2023-05-06T07:43:30.096Z,20.75
2023-05-06T07:46:01.025Z,21.01
2023-05-06T07:48:29.598Z,20.98
2023-05-06T07:50:57.542Z,20.78
2023-05-06T07:53:25.450Z,21.05
2023-05-06T07:55:57.793Z,21.13
2023-05-06T07:58:25.465Z,20.84
2023-05-06T08:01:02.408Z,20.93
2023-05-06T08:03:42.078Z,21.14
2023-05-06T08:06:12.632Z,20.97
2023-05-06T08:08:42.776Z,21.08
2023-05-06T08:11:18.779Z,21.24
2023-05-06T08:13:50.311Z,21.09
2023-05-06T08:16:18.016Z,21.02
2023-05-06T08:18:56.317Z,21.07
2023-05-06T08:21:26.538Z,21.33
2023-05-06T08:23:53.980Z,21.51
2023-05-06T08:26:24.043Z,21.41
2023-05-06T08:28:54.946Z,21.43
2023-05-06T08:31:24.727Z,20.94
2023-05-06T08:33:58.413Z,20.77
2023-05-06T08:36:31.754Z,20.09
2023-05-06T08:38:59.326Z,20.33
2023-05-06T08:41:30.384Z,19.98
2023-05-06T08:44:05.371Z,19.65
2023-05-06T08:46:33.048Z,19.36
2023-05-06T08:49:00.903Z,19.39
2023-05-06T08:51:33.546Z,19.41
2023-05-06T08:54:05.758Z,19.45
2023-05-06T08:56:34.804Z,20.14
2023-05-06T08:59:02.289Z,20.95
2023-05-06T09:01:33.278Z,20.51
2023-05-06T09:04:03.109Z,20.36
2023-05-06T09:06:30.507Z,19.91
2023-05-06T09:09:03.208Z,19.87
2023-05-06T09:11:36.804Z,20.46
2023-05-06T09:14:17.770Z,20.57
2023-05-06T09:16:46.266Z,20.74
2023-05-06T09:19:17.508Z,21.21
2023-05-06T09:21:47.289Z,21.57
2023-05-06T09:24:18.467Z,21.68
2023-05-06T09:26:47.146Z,21.47
2023-05-06T09:29:17.995Z,21.67
2023-05-06T09:31:47.458Z,21.72
2023-05-06T09:34:23.603Z,21.97
2023-05-06T09:36:52.633Z,22.17
2023-05-06T09:39:26.769Z,21.70
2023-05-06T09:41:57.264Z,22.03
2023-05-06T09:44:26.946Z,22.12
2023-05-06T09:46:54.565Z,21.65
2023-05-06T09:49:29.869Z,21.48
2023-05-06T09:52:01.119Z,21.58
2023-05-06T09:54:32.694Z,21.52
2023-05-06T09:57:02.593Z,20.79
2023-05-06T09:59:32.513Z,20.75
2023-05-06T10:02:02.142Z,21.15
2023-05-06T10:04:32.374Z,21.41
2023-05-06T10:07:00.181Z,21.18
2023-05-06T10:09:27.594Z,21.03
2023-05-06T10:11:55.822Z,21.13
2023-05-06T10:14:23.577Z,21.05
2023-05-06T10:16:51.843Z,20.77
2023-05-06T10:19:25.888Z,21.08
2023-05-06T10:22:07.289Z,21.26
2023-05-06T10:24:45.453Z,21.16
2023-05-06T10:27:14.114Z,21.04
2023-05-06T10:29:43.614Z,20.84
2023-05-06T10:32:12.062Z,20.66
2023-05-06T10:34:48.806Z,21.31
2023-05-06T10:37:16.594Z,21.71
2023-05-06T10:39:44.414Z,22.02
2023-05-06T10:42:12.321Z,22.15
2023-05-06T10:45:04.995Z,22.60
2023-05-06T10:48:00.564Z,21.93
2023-05-06T10:50:31.265Z,21.75
2023-05-06T10:52:59.092Z,21.56
2023-05-06T10:55:30.708Z,21.66
2023-05-06T10:58:06.092Z,21.53
2023-05-06T11:00:34.932Z,22.09
2023-05-06T11:03:07.204Z,21.85
2023-05-06T11:05:51.766Z,21.92
2023-05-06T11:08:26.584Z,22.46
2023-05-06T11:10:54.992Z,21.92
2023-05-06T11:13:26.190Z,21.90
2023-05-06T11:15:56.376Z,21.91
2023-05-06T11:18:27.067Z,21.61
2023-05-06T11:21:00.502Z,21.51
2023-05-06T11:23:48.108Z,21.24
2023-05-06T11:26:16.117Z,21.13
2023-05-06T11:28:45.413Z,21.39
2023-05-06T11:31:14.324Z,21.13
2023-05-06T11:33:54.767Z,21.31
2023-05-06T11:36:25.030Z,21.84
2023-05-06T11:38:55.670Z,21.98
2023-05-06T11:41:23.566Z,22.08
2023-05-06T11:43:52.824Z,22.20
2023-05-06T11:46:22.106Z,21.56
2023-05-06T11:48:50.325Z,21.08
2023-05-06T11:51:24.093Z,21.07
2023-05-06T11:54:04.707Z,21.22
2023-05-06T11:57:03.366Z,21.27
2023-05-06T11:59:35.657Z,21.36
2023-05-06T12:02:08.098Z,21.73
2023-05-06T12:04:45.085Z,22.23
2023-05-06T12:07:14.290Z,22.39
2023-05-06T12:09:49.822Z,22.39
2023-05-06T12:12:23.882Z,22.01
2023-05-06T12:14:57.112Z,22.09
2023-05-06T12:17:30.635Z,22.10
2023-05-06T12:19:58.215Z,21.69
2023-05-06T12:22:25.619Z,21.53
2023-05-06T12:24:54.329Z,21.91
2023-05-06T12:27:32.557Z,22.24
2023-05-06T12:30:02.638Z,22.30
2023-05-06T12:32:37.046Z,22.15
2023-05-06T12:35:24.455Z,22.10
2023-05-06T12:37:52.244Z,21.93
2023-05-06T12:40:20.361Z,22.08
2023-05-06T12:42:55.040Z,21.84
2023-05-06T12:45:22.983Z,21.61
2023-05-06T12:48:01.409Z,22.23
2023-05-06T12:50:35.318Z,22.20
2023-05-06T12:53:07.563Z,22.15
2023-05-06T12:55:36.618Z,22.21
2023-05-06T12:58:15.948Z,22.00
2023-05-06T13:00:43.716Z,21.88
2023-05-06T13:03:18.369Z,21.77
2023-05-06T13:05:46.317Z,21.89
2023-05-06T13:08:17.478Z,22.01
2023-05-06T13:10:54.873Z,21.80
2023-05-06T13:13:22.191Z,21.77
2023-05-06T13:15:49.618Z,21.74
2023-05-06T13:18:17.496Z,21.86
2023-05-06T13:20:44.848Z,22.15
2023-05-06T13:23:17.610Z,21.80
2023-05-06T13:25:56.318Z,21.82
2023-05-06T13:28:37.171Z,22.01
2023-05-06T13:31:05.195Z,22.02
2023-05-06T13:33:36.114Z,22.11
2023-05-06T13:36:06.886Z,22.10
2023-05-06T13:38:40.113Z,21.88
2023-05-06T13:41:15.748Z,21.77
2023-05-06T13:43:46.246Z,22.04
2023-05-06T13:46:13.623Z,22.39
2023-05-06T13:48:46.816Z,22.31
2023-05-06T13:51:14.216Z,22.24
2023-05-06T13:53:42.088Z,22.28
2023-05-06T13:56:12.419Z,22.44
2023-05-06T13:58:40.178Z,22.43
2023-05-06T14:01:10.509Z,22.50
2023-05-06T14:03:47.083Z,22.34
2023-05-06T14:06:20.183Z,22.37
2023-05-06T14:08:47.882Z,22.18
2023-05-06T14:11:18.645Z,22.19
2023-05-06T14:13:46.405Z,21.91
2023-05-06T14:16:20.453Z,21.87
2023-05-06T14:18:50.537Z,21.84
2023-05-06T14:21:23.020Z,21.73
2023-05-06T14:23:53.742Z,21.53
2023-05-06T14:26:24.293Z,21.55
2023-05-06T14:28:57.022Z,22.42
2023-05-06T14:31:24.923Z,22.37
2023-05-06T14:33:58.926Z,22.34
2023-05-06T14:36:29.475Z,22.41
2023-05-06T14:38:57.200Z,22.55
2023-05-06T14:41:33.224Z,22.40
2023-05-06T14:44:01.374Z,22.55
2023-05-06T14:46:33.089Z,22.31
2023-05-06T14:49:01.288Z,22.35
2023-05-06T14:51:31.632Z,22.44
2023-05-06T14:54:05.385Z,22.36
2023-05-06T14:56:38.556Z,22.07
2023-05-06T14:59:08.409Z,22.05
2023-05-06T15:01:45.264Z,21.96
2023-05-06T15:04:16.281Z,21.89
2023-05-06T15:06:46.936Z,21.74
2023-05-06T15:09:21.085Z,21.78
2023-05-06T15:11:52.215Z,21.75
2023-05-06T15:14:26.190Z,21.74
2023-05-06T15:17:01.411Z,21.54
2023-05-06T15:19:28.912Z,21.63
2023-05-06T15:21:56.263Z,21.72
2023-05-06T15:24:26.532Z,21.54
2023-05-06T15:26:54.135Z,21.59
2023-05-06T15:29:30.525Z,21.68
2023-05-06T15:32:01.325Z,21.65
2023-05-06T15:34:34.969Z,21.70
2023-05-06T15:37:02.750Z,21.67
2023-05-06T15:39:37.513Z,21.73
2023-05-06T15:42:10.784Z,21.75
2023-05-06T15:44:44.088Z,21.81
2023-05-06T15:47:14.656Z,21.89
2023-05-06T15:49:52.868Z,21.76
2023-05-06T15:52:27.745Z,21.80
2023-05-06T15:55:00.798Z,22.06
2023-05-06T15:57:34.940Z,21.82
2023-05-06T16:00:06.500Z,21.83
2023-05-06T16:02:36.779Z,21.57
2023-05-06T16:05:05.436Z,21.66
2023-05-06T16:07:38.295Z,21.51
2023-05-06T16:10:09.032Z,21.36
2023-05-06T16:12:39.218Z,21.39
2023-05-06T16:15:10.243Z,21.46
2023-05-06T16:17:38.155Z,21.42
2023-05-06T16:20:07.212Z,21.64
2023-05-06T16:22:34.552Z,21.56
2023-05-06T16:25:02.061Z,21.46
2023-05-06T16:27:29.421Z,21.47
2023-05-06T16:30:00.298Z,21.34
2023-05-06T16:32:28.016Z,21.24
2023-05-06T16:35:02.895Z,21.40
2023-05-06T16:37:30.221Z,21.34
2023-05-06T16:40:04.148Z,21.29
2023-05-06T16:42:31.566Z,21.36
2023-05-06T16:45:01.827Z,21.27
2023-05-06T16:47:31.762Z,21.27
2023-05-06T16:50:02.125Z,21.35
2023-05-06T16:52:30.786Z,21.39
2023-05-06T16:55:01.722Z,21.37
2023-05-06T16:57:32.033Z,21.35
2023-05-06T17:00:00.476Z,21.14
2023-05-06T17:02:27.929Z,21.24
2023-05-06T17:05:01.274Z,21.19
2023-05-06T17:07:28.565Z,21.07
2023-05-06T17:09:58.332Z,21.01
2023-05-06T17:12:25.696Z,21.12
2023-05-06T17:14:52.982Z,20.78
2023-05-06T17:17:21.776Z,20.91
2023-05-06T17:19:49.116Z,20.97
2023-05-06T17:22:16.481Z,21.18
2023-05-06T17:24:43.916Z,20.89
2023-05-06T17:27:14.072Z,20.76
2023-05-06T17:29:45.026Z,20.96
2023-05-06T17:32:12.521Z,21.08
2023-05-06T17:34:39.892Z,21.10
2023-05-06T17:37:11.069Z,20.82
2023-05-06T17:39:40.916Z,20.46
2023-05-06T17:42:11.721Z,20.30
2023-05-06T17:44:42.091Z,20.18
2023-05-06T17:47:12.934Z,20.06
2023-05-06T17:49:43.722Z,20.20
2023-05-06T17:52:11.443Z,20.40
2023-05-06T17:54:42.713Z,19.98
2023-05-06T17:57:13.618Z,20.12
2023-05-06T17:59:41.288Z,20.04
2023-05-06T18:02:11.933Z,20.17
2023-05-06T18:04:40.134Z,19.93
2023-05-06T18:07:17.902Z,19.40
2023-05-06T18:09:50.778Z,19.15
2023-05-06T18:12:22.245Z,18.92
2023-05-06T18:14:49.430Z,18.68
2023-05-06T18:17:19.881Z,18.91
2023-05-06T18:19:50.976Z,18.99
2023-05-06T18:22:18.410Z,18.59
2023-05-06T18:24:45.704Z,18.50
2023-05-06T18:27:13.108Z,18.41
2023-05-06T18:29:41.531Z,18.26
2023-05-06T18:32:09.056Z,18.12
2023-05-06T18:34:36.488Z,18.01
2023-05-06T18:37:03.874Z,17.95
2023-05-06T18:39:31.373Z,17.86
2023-05-06T18:41:58.809Z,17.85
2023-05-06T18:44:30.350Z,17.83
2023-05-06T18:46:57.714Z,17.79
2023-05-06T18:49:25.239Z,17.80
2023-05-06T18:51:52.692Z,17.77
2023-05-06T18:54:20.716Z,17.77
2023-05-06T18:56:48.094Z,17.62
2023-05-06T18:59:15.741Z,17.63
2023-05-06T19:01:43.172Z,17.61
2023-05-06T19:04:10.498Z,17.56
2023-05-06T19:06:38.008Z,18.03
2023-05-06T19:09:06.151Z,18.31
2023-05-06T19:11:33.761Z,17.78
2023-05-06T19:14:01.115Z,17.58
2023-05-06T19:16:28.641Z,17.54
2023-05-06T19:18:55.903Z,17.43
2023-05-06T19:21:23.159Z,17.31
2023-05-06T19:23:50.403Z,17.24
2023-05-06T19:26:17.672Z,17.04
2023-05-06T19:28:44.962Z,16.99
2023-05-06T19:31:12.341Z,16.95
2023-05-06T19:33:40.103Z,16.94
2023-05-06T19:36:07.431Z,16.86
2023-05-06T19:38:35.041Z,16.89
2023-05-06T19:41:02.482Z,16.72
2023-05-06T19:43:30.058Z,16.88
2023-05-06T19:45:57.491Z,16.82
2023-05-06T19:48:25.743Z,16.90
2023-05-06T19:50:53.103Z,16.78
2023-05-06T19:53:20.552Z,16.73
2023-05-06T19:55:47.890Z,16.68
2023-05-06T19:58:15.296Z,16.75
2023-05-06T20:00:42.668Z,16.74
2023-05-06T20:03:10.069Z,16.65
2023-05-06T20:05:38.506Z,16.60
2023-05-06T20:08:06.094Z,16.59
2023-05-06T20:10:37.487Z,16.47
2023-05-06T20:13:05.061Z,16.49
2023-05-06T20:15:33.108Z,16.44
2023-05-06T20:18:00.979Z,16.38
2023-05-06T20:20:28.434Z,16.39
2023-05-06T20:22:55.783Z,16.19
2023-05-06T20:25:23.067Z,16.18
2023-05-06T20:27:50.428Z,16.27
2023-05-06T20:30:17.814Z,16.09
2023-05-06T20:32:46.412Z,16.19
2023-05-06T20:35:13.909Z,16.10
2023-05-06T20:37:41.289Z,16.04
2023-05-06T20:40:09.231Z,16.11
2023-05-06T20:42:37.290Z,16.03
2023-05-06T20:45:05.137Z,15.92
2023-05-06T20:47:32.546Z,15.94
2023-05-06T20:49:59.878Z,15.93
2023-05-06T20:52:27.225Z,15.83
2023-05-06T20:54:54.534Z,15.67
2023-05-06T20:57:22.482Z,15.69
2023-05-06T20:59:49.774Z,15.74
2023-05-06T21:02:17.149Z,15.86
2023-05-06T21:04:44.430Z,15.75
2023-05-06T21:07:12.264Z,15.73
2023-05-06T21:09:39.677Z,15.82
2023-05-06T21:12:10.822Z,15.86
2023-05-06T21:14:40.804Z,15.84
2023-05-06T21:20:17.132Z,15.93
2023-05-06T21:23:10.156Z,15.93
2023-05-06T21:25:57.616Z,15.84
2023-05-06T21:28:25.818Z,15.80
2023-05-06T21:30:53.275Z,15.84
2023-05-06T21:33:20.558Z,15.75
2023-05-06T21:35:50.711Z,15.83
2023-05-06T21:38:18.061Z,15.77
2023-05-06T21:40:45.478Z,15.89
2023-05-06T21:43:12.797Z,15.88
2023-05-06T21:45:40.123Z,15.81
2023-05-06T21:48:07.452Z,15.82
2023-05-06T21:50:36.889Z,15.84
2023-05-06T21:53:04.569Z,15.88
2023-05-06T21:55:31.902Z,15.85
2023-05-06T21:57:59.198Z,15.84
2023-05-06T22:00:26.688Z,15.87
2023-05-06T22:02:54.722Z,15.83
2023-05-06T22:05:22.441Z,15.78
2023-05-06T22:07:51.080Z,15.82
2023-05-06T22:10:18.631Z,15.85
2023-05-06T22:12:45.979Z,15.84
2023-05-06T22:15:13.620Z,15.82
2023-05-06T22:17:41.122Z,15.79
2023-05-06T22:20:08.966Z,15.84
2023-05-06T22:22:37.736Z,15.76
2023-05-06T22:25:06.020Z,15.76
2023-05-06T22:27:33.428Z,15.65
2023-05-06T22:30:00.935Z,15.69
2023-05-06T22:32:28.497Z,15.70
2023-05-06T22:34:56.175Z,15.63
2023-05-06T22:37:23.812Z,15.63
2023-05-06T22:39:53.175Z,15.71
2023-05-06T22:42:20.392Z,15.71
2023-05-06T22:44:47.767Z,15.61
2023-05-06T22:47:15.370Z,15.60
2023-05-06T22:49:43.023Z,15.60
2023-05-06T22:52:10.487Z,15.55
2023-05-06T22:54:37.726Z,15.46
2023-05-06T22:57:05.047Z,15.46
2023-05-06T22:59:32.376Z,15.34
2023-05-06T23:01:59.787Z,15.34
2023-05-06T23:04:27.269Z,15.39
2023-05-06T23:06:54.655Z,15.45
2023-05-06T23:09:21.982Z,15.37
2023-05-06T23:11:49.369Z,15.29
2023-05-06T23:14:16.761Z,15.19
2023-05-06T23:16:44.399Z,15.24
2023-05-06T23:19:11.740Z,15.26
2023-05-06T23:21:39.058Z,15.28
2023-05-06T23:24:06.392Z,15.19
2023-05-06T23:26:33.911Z,15.23
2023-05-06T23:29:01.339Z,15.17
2023-05-06T23:31:28.772Z,15.28
2023-05-06T23:33:56.171Z,15.23
2023-05-06T23:36:23.472Z,15.25
2023-05-06T23:38:50.949Z,15.21
2023-05-06T23:41:18.244Z,15.25
2023-05-06T23:43:45.470Z,15.16
2023-05-06T23:46:12.995Z,15.15
2023-05-06T23:48:40.267Z,15.18
2023-05-06T23:51:07.648Z,15.18
2023-05-06T23:53:35.279Z,15.18
2023-05-06T23:56:05.523Z,15.12
2023-05-06T23:58:32.969Z,15.03
